createdAt,value
2019-04-23T00:00:56.239Z,9.17
2019-04-23T00:02:06.608Z,7.03
2019-04-23T00:03:16.826Z,7.53
2019-04-23T00:04:20.435Z,8.73
2019-04-23T00:05:39.465Z,8.40
2019-04-23T00:06:39.909Z,8.13
2019-04-23T00:08:48.769Z,6.03
2019-04-23T00:09:48.283Z,8.00
2019-04-23T00:10:59.156Z,6.13
2019-04-23T00:11:59.889Z,6.33
2019-04-23T00:13:02.324Z,7.17
2019-04-23T00:14:15.099Z,8.63
2019-04-23T00:15:13.569Z,9.80
2019-04-23T00:16:23.724Z,7.77
2019-04-23T00:17:30.460Z,6.13
2019-04-23T00:18:36.846Z,7.20
2019-04-23T00:19:39.752Z,9.17
2019-04-23T00:20:42.987Z,6.17
2019-04-23T00:21:46.032Z,7.43
2019-04-23T00:24:15.849Z,7.43
2019-04-23T00:26:40.290Z,11.23
2019-04-23T00:28:50.469Z,10.37
2019-04-23T00:29:56.030Z,9.50
2019-04-23T00:31:59.630Z,9.17
2019-04-23T00:33:15.671Z,8.10
2019-04-23T00:34:09.238Z,8.00
2019-04-23T00:35:12.886Z,9.43
2019-04-23T00:36:27.214Z,9.90
2019-04-23T00:39:44.000Z,7.33
2019-04-23T00:40:45.376Z,7.33
2019-04-23T00:41:50.862Z,8.27
2019-04-23T00:42:53.466Z,8.23
2019-04-23T00:44:04.069Z,6.63
2019-04-23T00:45:03.424Z,6.90
2019-04-23T00:46:09.211Z,7.90
2019-04-23T00:47:22.369Z,9.87
2019-04-23T00:48:28.248Z,8.63
2019-04-23T00:49:27.030Z,8.73
2019-04-23T00:50:38.507Z,7.17
2019-04-23T00:51:36.835Z,9.67
2019-04-23T00:52:48.761Z,8.73
2019-04-23T00:53:46.698Z,8.03
2019-04-23T00:54:57.254Z,8.53
2019-04-23T00:57:07.321Z,9.73
2019-04-23T00:58:12.472Z,8.53
2019-04-23T00:59:12.460Z,8.60
2019-04-23T01:00:28.151Z,8.50
2019-04-23T01:03:33.894Z,7.77
2019-04-23T01:04:51.020Z,7.77
2019-04-23T01:05:46.915Z,7.53
2019-04-23T01:07:01.140Z,8.90
2019-04-23T01:08:01.844Z,8.07
2019-04-23T01:09:03.732Z,9.27
2019-04-23T01:11:27.714Z,8.20
2019-04-23T01:12:38.070Z,8.87
2019-04-23T01:13:46.847Z,7.23
2019-04-23T01:14:52.023Z,7.67
2019-04-23T01:15:57.761Z,8.67
2019-04-23T01:16:49.495Z,9.20
2019-04-23T01:18:10.921Z,9.83
2019-04-23T01:19:17.691Z,9.40
2019-04-23T01:20:20.988Z,7.37
2019-04-23T01:21:13.854Z,7.83
2019-04-23T01:22:19.414Z,7.37
2019-04-23T01:23:47.050Z,8.43
2019-04-23T01:25:11.113Z,7.87
2019-04-23T01:26:23.995Z,9.27
2019-04-23T01:28:50.292Z,9.37
2019-04-23T01:29:57.934Z,7.60
2019-04-23T01:31:07.758Z,8.27
2019-04-23T01:32:10.997Z,9.33
2019-04-23T01:33:10.987Z,10.53
2019-04-23T01:34:20.163Z,10.37
2019-04-23T01:35:20.234Z,10.30
2019-04-23T01:36:28.118Z,9.03
2019-04-23T01:37:30.471Z,11.63
2019-04-23T01:38:40.510Z,10.03
2019-04-23T01:39:43.879Z,10.20
2019-04-23T01:40:45.890Z,12.03
2019-04-23T01:42:03.727Z,9.67
2019-04-23T01:42:58.708Z,14.80
2019-04-23T01:44:05.277Z,8.83
2019-04-23T01:46:24.974Z,9.40
2019-04-23T01:47:25.018Z,13.97
2019-04-23T01:48:29.979Z,8.57
2019-04-23T01:49:39.279Z,7.77
2019-04-23T01:50:43.475Z,12.80
2019-04-23T01:51:49.769Z,10.53
2019-04-23T01:52:45.578Z,10.50
2019-04-23T01:54:12.392Z,12.63
2019-04-23T01:55:00.883Z,10.40
2019-04-23T01:56:11.407Z,11.03
2019-04-23T01:57:16.616Z,10.07
2019-04-23T01:59:24.651Z,10.43
2019-04-23T02:00:28.696Z,12.30
2019-04-23T02:01:34.368Z,9.97
2019-04-23T02:02:45.740Z,9.30
2019-04-23T02:03:46.588Z,10.83
2019-04-23T02:04:52.614Z,8.77
2019-04-23T02:06:03.291Z,9.07
2019-04-23T02:09:13.387Z,9.00
2019-04-23T02:10:31.202Z,9.23
2019-04-23T02:11:16.431Z,10.53
2019-04-23T02:12:33.079Z,9.73
2019-04-23T02:13:53.281Z,9.83
2019-04-23T02:14:44.784Z,11.30
2019-04-23T02:15:42.457Z,9.83
2019-04-23T02:16:49.928Z,8.40
2019-04-23T02:17:58.600Z,11.27
2019-04-23T02:19:03.401Z,8.53
2019-04-23T02:20:09.927Z,8.87
2019-04-23T02:21:10.615Z,8.73
2019-04-23T02:22:38.937Z,10.23
2019-04-23T02:23:43.895Z,14.47
2019-04-23T02:24:54.585Z,9.63
2019-04-23T02:26:55.902Z,7.50
2019-04-23T02:29:26.626Z,8.53
2019-04-23T02:30:40.090Z,9.67
2019-04-23T02:32:42.351Z,7.43
2019-04-23T02:35:52.763Z,8.03
2019-04-23T02:36:55.003Z,6.77
2019-04-23T02:38:11.786Z,8.97
2019-04-23T02:38:56.216Z,7.07
2019-04-23T02:40:13.983Z,8.60
2019-04-23T09:09:27.691Z,2.33
2019-04-23T09:11:41.666Z,2.27
2019-04-23T09:14:52.406Z,2.67
2019-04-23T09:15:56.557Z,3.30
2019-04-23T09:17:06.162Z,3.40
2019-04-23T09:18:11.769Z,4.40
2019-04-23T09:19:16.115Z,5.60
2019-04-23T09:21:21.471Z,4.13
2019-04-23T09:22:31.165Z,6.07
2019-04-23T09:24:41.521Z,3.90
2019-04-23T09:26:56.195Z,5.63
2019-04-23T09:27:54.785Z,5.73
2019-04-23T09:28:57.992Z,4.80
2019-04-23T09:30:22.919Z,5.40
2019-04-23T09:31:30.372Z,6.63
2019-04-23T09:32:25.190Z,6.67
2019-04-23T09:33:39.403Z,8.30
2019-04-23T09:34:56.932Z,6.80
2019-04-23T09:36:06.801Z,8.37
2019-04-23T09:37:18.773Z,4.03
2019-04-23T09:38:28.033Z,8.57
2019-04-23T09:41:05.918Z,4.97
2019-04-23T09:42:04.888Z,3.43
2019-04-23T09:44:41.393Z,7.97
2019-04-23T09:45:38.584Z,4.50
2019-04-23T09:46:57.074Z,4.37
2019-04-23T09:49:19.003Z,9.50
2019-04-23T09:51:17.926Z,5.53
2019-04-23T09:52:21.947Z,5.03
2019-04-23T09:54:37.884Z,4.77
2019-04-23T09:56:42.795Z,4.17
2019-04-23T09:57:51.461Z,7.97
2019-04-23T09:58:59.109Z,9.93
2019-04-23T09:59:58.166Z,8.03
2019-04-23T10:01:26.016Z,6.90
2019-04-23T10:02:23.726Z,7.10
2019-04-23T10:03:21.244Z,5.07
2019-04-23T10:04:25.147Z,5.57
2019-04-23T10:05:28.835Z,6.07
2019-04-23T10:06:28.302Z,3.97
2019-04-23T10:07:40.518Z,6.07
2019-04-23T10:08:40.240Z,8.07
2019-04-23T10:09:42.398Z,7.07
2019-04-23T10:10:47.177Z,5.30
2019-04-23T10:11:51.246Z,7.13
2019-04-23T10:12:55.746Z,4.40
2019-04-23T10:14:00.742Z,6.10
2019-04-23T10:15:13.736Z,4.83
2019-04-23T10:16:17.059Z,5.13
2019-04-23T10:17:18.072Z,11.00
2019-04-23T10:18:22.431Z,10.00
2019-04-23T10:19:26.893Z,8.90
2019-04-23T10:20:30.917Z,5.27
2019-04-23T10:21:35.284Z,4.73
2019-04-23T10:22:39.530Z,7.47
2019-04-23T10:23:43.383Z,4.07
2019-04-23T10:24:47.071Z,9.50
2019-04-23T10:25:52.077Z,5.47
2019-04-23T10:26:57.676Z,7.07
2019-04-23T10:28:06.910Z,7.13
2019-04-23T10:29:09.900Z,6.30
2019-04-23T10:30:14.469Z,4.43
2019-04-23T10:31:18.754Z,4.70
2019-04-23T10:32:22.728Z,6.27
2019-04-23T10:33:27.645Z,6.37
2019-04-23T10:34:43.019Z,8.03
2019-04-23T10:35:47.153Z,7.00
2019-04-23T10:36:42.687Z,5.40
2019-04-23T10:37:54.695Z,6.47
2019-04-23T10:39:00.549Z,8.83
2019-04-23T10:40:00.898Z,11.47
2019-04-23T10:41:04.402Z,6.27
2019-04-23T10:42:09.923Z,5.83
2019-04-23T10:43:15.066Z,5.93
2019-04-23T10:44:21.491Z,7.20
2019-04-23T10:45:51.385Z,7.23
2019-04-23T10:47:02.713Z,4.87
2019-04-23T10:49:47.696Z,5.77
2019-04-23T10:50:59.692Z,6.67
2019-04-23T10:52:07.106Z,7.90
2019-04-23T10:53:19.493Z,8.63
2019-04-23T10:55:27.889Z,7.37
2019-04-23T10:56:27.205Z,5.10
2019-04-23T10:57:25.074Z,6.33
2019-04-23T10:58:35.311Z,7.87
2019-04-23T10:59:43.570Z,7.77
2019-04-23T11:00:53.434Z,5.93
2019-04-23T11:02:10.502Z,7.10
2019-04-23T11:03:09.993Z,6.07
2019-04-23T11:05:35.663Z,6.70
2019-04-23T11:06:36.426Z,7.20
2019-04-23T11:09:52.601Z,7.93
2019-04-23T11:10:46.340Z,5.00
2019-04-23T11:12:03.973Z,5.97
2019-04-23T11:13:12.169Z,6.17
2019-04-23T11:14:19.531Z,6.30
2019-04-23T11:16:50.765Z,6.87
2019-04-23T11:17:34.741Z,9.43
2019-04-23T11:18:46.871Z,6.97
2019-04-23T11:20:41.206Z,9.33
2019-04-23T11:21:58.226Z,5.57
2019-04-23T11:24:10.980Z,6.37
2019-04-23T11:25:20.483Z,7.83
2019-04-23T11:26:22.939Z,6.20
2019-04-23T11:27:22.282Z,8.90
2019-04-23T11:28:29.306Z,7.60
2019-04-23T11:29:34.198Z,8.40
2019-04-23T11:30:36.155Z,7.50
2019-04-23T11:32:53.938Z,8.80
2019-04-23T11:35:15.792Z,9.77
2019-04-23T11:36:33.243Z,8.17
2019-04-23T11:37:14.482Z,10.33
2019-04-23T11:38:44.485Z,9.90
2019-04-23T11:39:23.187Z,20.33
2019-04-23T11:41:48.862Z,25.17
2019-04-23T11:42:46.484Z,18.87
2019-04-23T11:43:40.352Z,15.77
2019-04-23T11:44:49.983Z,14.50
2019-04-23T11:45:57.569Z,14.20
2019-04-23T11:47:04.213Z,12.97
2019-04-23T11:52:36.531Z,11.67
2019-04-23T11:53:35.574Z,6.80
2019-04-23T11:54:36.020Z,13.17
2019-04-23T11:55:49.312Z,11.57
2019-04-23T11:57:15.014Z,8.20
2019-04-23T11:58:13.754Z,8.67
2019-04-23T11:59:12.277Z,10.03
2019-04-23T12:00:06.118Z,7.27
2019-04-23T12:01:23.630Z,13.43
2019-04-23T12:02:32.496Z,8.27
2019-04-23T12:03:41.857Z,9.83
2019-04-23T12:04:49.926Z,8.33
2019-04-23T12:07:25.955Z,9.63
2019-04-23T12:10:07.741Z,6.50
2019-04-23T12:11:36.084Z,11.63
2019-04-23T12:12:11.253Z,23.23
2019-04-23T12:13:21.246Z,7.63
2019-04-23T12:14:37.160Z,11.03
2019-04-23T12:15:32.550Z,7.93
2019-04-23T12:16:55.608Z,9.07
2019-04-23T12:17:41.150Z,8.93
2019-04-23T12:19:14.340Z,7.40
2019-04-23T12:21:20.147Z,5.07
2019-04-23T12:23:40.536Z,7.37
2019-04-23T12:26:53.522Z,13.43
2019-04-23T12:27:39.815Z,6.33
2019-04-23T12:28:57.079Z,6.30
2019-04-23T12:30:01.306Z,7.33
2019-04-23T12:31:10.016Z,10.00
2019-04-23T12:32:41.830Z,14.47
2019-04-23T12:33:36.121Z,8.60
2019-04-23T12:34:47.056Z,10.07
2019-04-23T12:35:33.830Z,6.40
2019-04-23T12:36:46.701Z,8.33
2019-04-23T12:37:55.483Z,13.37
2019-04-23T12:39:04.489Z,9.50
2019-04-23T12:40:15.112Z,10.90
2019-04-23T12:41:14.096Z,6.27
2019-04-23T12:42:41.336Z,9.20
2019-04-23T12:43:20.657Z,7.40
2019-04-23T12:44:30.623Z,9.00
2019-04-23T12:45:37.458Z,9.27
2019-04-23T12:47:59.903Z,6.07
2019-04-23T12:49:00.963Z,8.60
2019-04-23T12:50:38.759Z,8.10
2019-04-23T12:50:58.679Z,6.53
2019-04-23T12:52:12.108Z,12.63
2019-04-23T12:53:24.372Z,8.87
2019-04-23T12:54:38.470Z,12.97
2019-04-23T12:55:31.953Z,7.93
2019-04-23T12:56:42.213Z,7.40
2019-04-23T12:58:36.054Z,7.00
2019-04-23T13:00:48.398Z,14.20
2019-04-23T13:03:18.941Z,13.53
2019-04-23T13:04:09.696Z,11.07
2019-04-23T13:05:18.144Z,12.30
2019-04-23T13:06:16.954Z,10.53
2019-04-23T13:07:36.975Z,14.37
2019-04-23T13:08:41.472Z,11.43
2019-04-23T13:09:49.130Z,9.17
2019-04-23T13:11:01.064Z,14.07
2019-04-23T13:11:50.008Z,11.10
2019-04-23T13:13:11.314Z,13.23
2019-04-23T13:14:06.963Z,17.00
2019-04-23T13:15:11.613Z,15.00
2019-04-23T13:18:23.636Z,13.77
2019-04-23T13:19:39.839Z,21.80
2019-04-23T13:20:32.383Z,20.70
2019-04-23T13:22:00.634Z,21.67
2019-04-23T13:23:47.498Z,25.50
2019-04-23T13:25:02.041Z,17.57
2019-04-23T13:26:04.104Z,14.37
2019-04-23T13:27:23.961Z,12.63
2019-04-23T13:28:23.585Z,10.87
2019-04-23T13:29:41.085Z,7.67
2019-04-23T13:31:34.663Z,12.43
2019-04-23T13:32:55.571Z,10.07
2019-04-23T13:33:51.531Z,15.33
2019-04-23T13:35:08.454Z,9.93
2019-04-23T13:37:13.978Z,12.97
2019-04-23T13:38:28.553Z,10.33
2019-04-23T13:39:24.474Z,12.63
2019-04-23T13:40:32.164Z,9.13
2019-04-23T13:41:33.524Z,11.43
2019-04-23T13:42:45.317Z,10.43
2019-04-23T13:44:49.988Z,7.90
2019-04-23T13:47:00.509Z,9.63
2019-04-23T13:48:06.792Z,9.60
2019-04-23T13:49:09.995Z,7.73
2019-04-23T13:51:34.249Z,10.00
2019-04-23T13:52:51.639Z,10.10
2019-04-23T13:53:49.611Z,10.23
2019-04-23T13:54:54.848Z,10.53
2019-04-23T13:55:42.519Z,8.60
2019-04-23T13:59:03.630Z,8.83
2019-04-23T14:00:08.699Z,6.50
2019-04-23T14:01:20.129Z,11.83
2019-04-23T14:03:32.225Z,10.77
2019-04-23T14:04:38.881Z,10.47
2019-04-23T14:05:45.386Z,12.80
2019-04-23T14:06:47.524Z,8.10
2019-04-23T14:07:57.065Z,11.60
2019-04-23T14:08:59.859Z,11.53
2019-04-23T14:10:13.932Z,13.80
2019-04-23T14:12:20.376Z,9.77
2019-04-23T14:13:37.315Z,13.00
2019-04-23T14:14:41.955Z,17.13
2019-04-23T14:15:54.020Z,12.00
2019-04-23T14:16:51.925Z,11.83
2019-04-23T14:20:09.975Z,13.17
2019-04-23T14:22:48.794Z,14.30
2019-04-23T14:24:28.145Z,12.10
2019-04-23T14:25:41.436Z,12.63
2019-04-23T14:26:39.591Z,11.53
2019-04-23T14:27:56.335Z,13.63
2019-04-23T14:30:07.225Z,10.33
2019-04-23T14:31:08.031Z,8.93
2019-04-23T14:32:18.681Z,14.30
2019-04-23T14:33:17.505Z,12.30
2019-04-23T14:34:21.107Z,13.23
2019-04-23T14:35:40.334Z,10.93
2019-04-23T14:37:59.050Z,11.53
2019-04-23T14:38:43.934Z,8.40
2019-04-23T14:39:46.440Z,11.10
2019-04-23T14:41:05.359Z,8.67
2019-04-23T14:42:16.675Z,9.77
2019-04-23T14:43:12.163Z,8.53
2019-04-23T14:44:19.857Z,9.63
2019-04-23T14:47:39.769Z,14.63
2019-04-23T14:50:12.526Z,15.40
2019-04-23T14:51:00.527Z,8.03
2019-04-23T14:52:00.291Z,11.77
2019-04-23T14:53:16.136Z,8.77
2019-04-23T14:54:17.317Z,6.93
2019-04-23T14:56:32.419Z,22.50
2019-04-23T14:58:44.071Z,11.60
2019-04-23T14:59:45.094Z,11.90
2019-04-23T15:01:06.916Z,13.77
2019-04-23T15:02:00.866Z,12.17
2019-04-23T15:03:07.889Z,10.10
2019-04-23T15:04:02.079Z,9.90
2019-04-23T15:05:17.557Z,10.83
2019-04-23T15:06:29.445Z,9.33
2019-04-23T15:08:30.229Z,8.60
2019-04-23T15:10:57.057Z,10.30
2019-04-23T15:11:53.469Z,17.13
2019-04-23T15:15:24.000Z,10.10
2019-04-23T15:18:35.375Z,11.03
2019-04-23T15:19:56.537Z,9.13
2019-04-23T15:21:34.144Z,11.87
2019-04-23T15:22:15.785Z,8.87
2019-04-23T15:23:37.646Z,10.77
2019-04-23T15:24:27.631Z,7.70
2019-04-23T15:25:40.337Z,12.80
2019-04-23T15:28:26.500Z,9.00
2019-04-23T15:29:42.095Z,18.17
2019-04-23T15:31:04.100Z,20.53
2019-04-23T15:32:05.355Z,12.27
2019-04-23T15:34:13.772Z,9.83
2019-04-23T15:35:32.040Z,12.57
2019-04-23T15:37:43.122Z,11.03
2019-04-23T15:38:43.070Z,9.17
2019-04-23T15:39:49.421Z,10.13
2019-04-23T15:40:53.325Z,12.83
2019-04-23T15:42:08.907Z,11.53
2019-04-23T15:43:02.518Z,13.80
2019-04-23T15:44:08.753Z,12.93
2019-04-23T15:45:11.245Z,7.87
2019-04-23T15:46:24.097Z,12.37
2019-04-23T15:48:26.370Z,9.90
2019-04-23T15:50:46.071Z,15.83
2019-04-23T15:51:54.584Z,10.60
2019-04-23T15:52:54.244Z,8.67
2019-04-23T15:53:56.461Z,8.60
2019-04-23T15:56:16.413Z,13.30
2019-04-23T15:57:07.369Z,12.23
2019-04-23T15:58:28.169Z,11.07
2019-04-23T15:59:31.446Z,10.50
2019-04-23T16:00:22.476Z,10.73
2019-04-23T16:02:10.047Z,20.53
2019-04-23T16:03:15.611Z,21.27
2019-04-23T16:04:20.070Z,13.27
2019-04-23T16:05:25.775Z,17.63
2019-04-23T16:06:32.730Z,15.30
2019-04-23T16:07:54.966Z,12.90
2019-04-23T16:10:17.611Z,14.43
2019-04-23T16:11:33.601Z,12.67
2019-04-23T16:12:27.742Z,14.70
2019-04-23T16:13:38.888Z,13.77
2019-04-23T16:14:40.731Z,15.80
2019-04-23T16:18:07.923Z,17.17
2019-04-23T16:19:07.699Z,13.30
2019-04-23T16:22:36.802Z,10.07
2019-04-23T16:23:29.120Z,13.13
2019-04-23T16:24:26.596Z,12.53
2019-04-23T16:25:36.327Z,9.57
2019-04-23T16:26:55.855Z,10.67
2019-04-23T16:27:58.100Z,12.63
2019-04-23T16:30:15.909Z,11.83
2019-04-23T16:31:20.517Z,12.07
2019-04-23T16:33:16.412Z,12.90
2019-04-23T16:34:33.551Z,10.43
2019-04-23T16:35:51.127Z,13.20
2019-04-23T16:36:54.685Z,11.67
2019-04-23T16:38:18.545Z,12.40
2019-04-23T16:39:09.005Z,12.87
2019-04-23T16:40:26.469Z,9.73
2019-04-23T16:41:20.063Z,14.03
2019-04-23T16:42:23.655Z,16.03
2019-04-23T16:43:40.842Z,11.50
2019-04-23T16:44:41.314Z,10.77
2019-04-23T16:45:42.235Z,14.13
2019-04-23T16:46:48.580Z,15.00
2019-04-23T16:47:53.572Z,14.80
2019-04-23T16:49:12.766Z,13.03
2019-04-23T16:50:04.552Z,21.30
2019-04-23T16:54:24.653Z,10.07
2019-04-23T16:55:34.472Z,13.43
2019-04-23T16:56:42.790Z,15.10
2019-04-23T16:57:43.708Z,18.77
2019-04-23T16:58:54.409Z,15.20
2019-04-23T17:00:08.267Z,18.73
2019-04-23T17:02:12.068Z,15.73
2019-04-23T17:03:19.254Z,15.23
2019-04-23T17:04:18.239Z,13.83
2019-04-23T17:05:20.045Z,12.53
2019-04-23T17:06:24.727Z,16.57
2019-04-23T17:07:22.198Z,12.73
2019-04-23T17:09:42.665Z,16.20
2019-04-23T17:10:53.656Z,13.43
2019-04-23T17:12:01.631Z,12.37
2019-04-23T17:13:06.765Z,13.27
2019-04-23T17:14:09.189Z,12.30
2019-04-23T17:16:15.368Z,13.37
2019-04-23T17:17:15.193Z,12.17
2019-04-23T17:18:24.608Z,15.73
2019-04-23T17:19:27.924Z,14.10
2019-04-23T17:21:38.539Z,19.13
2019-04-23T17:22:46.983Z,19.17
2019-04-23T17:24:08.103Z,12.50
2019-04-23T17:25:07.368Z,10.10
2019-04-23T17:26:13.479Z,10.20
2019-04-23T17:28:20.247Z,11.27
2019-04-23T17:29:21.358Z,12.33
2019-04-23T17:30:28.579Z,9.70
2019-04-23T17:31:35.160Z,10.27
2019-04-23T17:32:47.309Z,9.43
2019-04-23T17:35:11.264Z,11.47
2019-04-23T17:36:30.937Z,9.00
2019-04-23T17:37:57.797Z,10.77
2019-04-23T17:39:52.684Z,8.73
2019-04-23T17:41:31.173Z,16.03
2019-04-23T17:43:25.794Z,8.33
2019-04-23T17:48:13.206Z,9.70
2019-04-23T17:49:16.398Z,9.27
2019-04-23T17:50:23.137Z,11.33
2019-04-23T17:51:21.015Z,9.50
2019-04-23T17:52:34.899Z,9.33
2019-04-23T17:55:57.241Z,10.43
2019-04-23T17:57:01.525Z,14.33
2019-04-23T17:58:03.434Z,11.27
2019-04-23T17:59:04.254Z,24.10
2019-04-23T18:01:24.422Z,13.60
2019-04-23T18:03:34.703Z,9.87
2019-04-23T18:04:43.993Z,8.80
2019-04-23T18:05:46.034Z,7.73
2019-04-23T18:06:55.915Z,10.67
2019-04-23T18:08:06.715Z,10.93
2019-04-23T18:11:16.147Z,13.90
2019-04-23T18:12:30.773Z,14.53
2019-04-23T18:13:36.700Z,15.00
2019-04-23T18:14:31.128Z,10.70
2019-04-23T18:15:45.911Z,13.77
2019-04-23T18:17:00.758Z,12.57
2019-04-23T18:17:54.699Z,17.50
2019-04-23T18:19:07.788Z,17.00
2019-04-23T18:20:16.679Z,12.83
2019-04-23T18:21:44.618Z,13.67
2019-04-23T18:22:42.191Z,11.87
2019-04-23T18:24:13.468Z,12.53
2019-04-23T18:25:39.509Z,9.43
2019-04-23T18:27:50.883Z,10.90
2019-04-23T18:29:07.014Z,12.30
2019-04-23T18:31:20.103Z,11.87
2019-04-23T18:33:01.716Z,11.77
2019-04-23T18:34:03.651Z,11.43
2019-04-23T18:34:59.653Z,11.30
2019-04-23T18:35:40.374Z,8.50
2019-04-23T18:36:59.660Z,9.83
2019-04-23T18:37:58.505Z,7.53
2019-04-23T18:39:06.766Z,12.47
2019-04-23T18:40:05.207Z,11.20
2019-04-23T18:41:15.749Z,13.83
2019-04-23T18:42:34.424Z,10.60
2019-04-23T18:44:38.321Z,12.30
2019-04-23T18:46:42.167Z,11.83
2019-04-23T18:48:52.791Z,12.20
2019-04-23T18:50:03.760Z,16.33
2019-04-23T18:51:16.024Z,11.77
2019-04-23T18:52:14.537Z,12.10
2019-04-23T18:53:22.752Z,9.00
2019-04-23T18:54:24.737Z,7.87
2019-04-23T18:55:58.890Z,10.93
2019-04-23T18:56:59.497Z,9.20
2019-04-23T18:57:55.299Z,11.07
2019-04-23T18:59:00.988Z,9.90
2019-04-23T18:59:57.339Z,9.27
2019-04-23T19:01:05.141Z,8.67
2019-04-23T19:02:44.893Z,9.27
2019-04-23T19:04:11.283Z,10.47
2019-04-23T19:05:10.603Z,10.43
2019-04-23T19:07:45.121Z,9.73
2019-04-23T19:10:32.127Z,8.13
2019-04-23T19:11:44.326Z,11.17
2019-04-23T19:12:44.385Z,13.67
2019-04-23T19:13:44.672Z,14.13
2019-04-23T19:14:56.117Z,9.90
2019-04-23T19:15:45.867Z,9.93
2019-04-23T19:18:04.183Z,8.03
2019-04-23T19:19:33.605Z,8.77
2019-04-23T19:22:36.359Z,6.93
2019-04-23T19:23:42.835Z,7.50
2019-04-23T19:24:46.743Z,10.20
2019-04-23T19:25:46.761Z,7.53
2019-04-23T19:28:10.409Z,9.33
2019-04-23T19:30:14.116Z,10.17
2019-04-23T19:31:27.584Z,10.57
2019-04-23T19:32:14.172Z,10.30
2019-04-23T19:33:36.657Z,8.17
2019-04-23T19:34:40.794Z,8.50
2019-04-23T19:37:55.627Z,13.37
2019-04-23T19:39:03.220Z,8.10
2019-04-23T19:40:00.251Z,9.97
2019-04-23T19:41:12.911Z,9.97
2019-04-23T19:42:29.958Z,12.70
2019-04-23T19:43:19.102Z,8.90
2019-04-23T19:44:24.998Z,11.83
2019-04-23T19:45:40.431Z,14.53
2019-04-23T19:46:48.995Z,11.67
2019-04-23T19:47:55.954Z,12.77
2019-04-23T19:49:05.759Z,11.57
2019-04-23T19:50:03.699Z,8.43
2019-04-23T19:52:00.918Z,11.90
2019-04-23T19:53:32.368Z,10.93
2019-04-23T19:54:35.932Z,13.47
2019-04-23T19:55:21.458Z,10.27
2019-04-23T19:56:29.203Z,11.43
2019-04-23T19:57:37.623Z,10.27
2019-04-23T19:58:46.972Z,9.47
2019-04-23T19:59:45.157Z,10.23
2019-04-23T20:01:03.684Z,9.80
2019-04-23T20:01:58.893Z,9.03
2019-04-23T20:04:18.088Z,8.53
2019-04-23T20:05:07.270Z,10.73
2019-04-23T20:06:26.697Z,10.90
2019-04-23T20:07:22.428Z,15.00
2019-04-23T20:08:41.205Z,9.87
2019-04-23T20:09:43.807Z,16.83
2019-04-23T20:10:39.806Z,8.73
2019-04-23T20:11:53.285Z,10.20
2019-04-23T20:12:51.755Z,14.73
2019-04-23T20:14:58.261Z,10.87
2019-04-23T20:16:10.893Z,9.63
2019-04-23T20:18:26.912Z,11.07
2019-04-23T20:19:30.108Z,14.20
2019-04-23T20:20:35.300Z,9.77
2019-04-23T20:21:38.885Z,8.13
2019-04-23T20:22:50.763Z,9.77
2019-04-23T20:24:04.769Z,9.30
2019-04-23T20:27:13.995Z,9.03
2019-04-23T20:28:24.152Z,10.87
2019-04-23T20:33:20.902Z,8.43
2019-04-23T20:34:11.455Z,8.93
2019-04-23T20:35:06.624Z,10.37
2019-04-23T20:36:14.646Z,9.10
2019-04-23T20:37:05.563Z,11.67
2019-04-23T20:39:39.713Z,9.43
2019-04-23T20:40:34.503Z,9.73
2019-04-23T20:42:07.878Z,9.97
2019-04-23T20:42:54.927Z,8.20
2019-04-23T20:44:01.782Z,10.07
2019-04-23T20:45:05.992Z,7.50
2019-04-23T20:48:25.302Z,9.20
2019-04-23T20:49:40.178Z,9.37
2019-04-23T20:50:34.490Z,8.03
2019-04-23T20:51:41.313Z,9.60
2019-04-23T20:52:41.164Z,9.33
2019-04-23T20:53:55.329Z,7.40
2019-04-23T20:55:08.111Z,8.40
2019-04-23T20:57:42.931Z,9.37
2019-04-23T20:59:43.811Z,11.07
2019-04-23T21:00:57.146Z,9.10
2019-04-23T21:02:15.170Z,7.73
2019-04-23T21:04:37.834Z,7.43
2019-04-23T21:06:39.774Z,8.40
2019-04-23T21:07:54.026Z,10.30
2019-04-23T21:09:05.721Z,6.90
2019-04-23T21:10:01.399Z,10.47
2019-04-23T21:10:51.107Z,8.37
2019-04-23T21:12:04.934Z,8.40
2019-04-23T21:14:53.977Z,10.10
2019-04-23T21:15:24.144Z,7.47
2019-04-23T21:16:25.139Z,7.13
2019-04-23T21:17:42.380Z,8.40
2019-04-23T21:18:37.062Z,6.23
2019-04-23T21:19:50.472Z,7.13
2019-04-23T21:20:40.122Z,8.60
2019-04-23T21:22:09.292Z,9.03
2019-04-23T21:23:14.562Z,10.20
2019-04-23T21:24:16.902Z,9.13
2019-04-23T21:25:27.915Z,11.67
2019-04-23T21:26:30.728Z,10.33
2019-04-23T21:29:58.516Z,10.63
2019-04-23T21:32:09.244Z,7.97
2019-04-23T21:36:37.654Z,8.03
2019-04-23T21:39:12.058Z,7.77
2019-04-23T21:40:45.086Z,8.70
2019-04-23T21:42:58.939Z,11.83
2019-04-23T21:46:05.997Z,13.23
2019-04-23T21:47:25.268Z,14.10
2019-04-23T21:48:15.466Z,15.17
2019-04-23T21:49:25.252Z,10.10
2019-04-23T21:52:36.165Z,11.90
2019-04-23T21:53:50.694Z,9.43
2019-04-23T21:54:43.075Z,9.90
2019-04-23T21:57:08.803Z,9.13
2019-04-23T21:59:07.331Z,8.70
2019-04-23T22:00:14.168Z,7.13
2019-04-23T22:02:32.219Z,7.50
2019-04-23T22:04:00.594Z,9.80
2019-04-23T22:05:49.665Z,7.80
2019-04-23T22:06:47.979Z,9.10
2019-04-23T22:09:10.404Z,8.30
2019-04-23T22:10:11.685Z,11.57
2019-04-23T22:11:37.600Z,12.37
2019-04-23T22:12:15.043Z,9.70
2019-04-23T22:13:29.405Z,12.50
2019-04-23T22:15:46.516Z,13.63
2019-04-23T22:16:52.024Z,8.93
2019-04-23T22:17:44.352Z,12.63
2019-04-23T22:19:05.678Z,11.40
2019-04-23T22:20:04.060Z,9.97
2019-04-23T22:21:06.558Z,10.97
2019-04-23T22:22:02.553Z,11.37
2019-04-23T22:23:33.829Z,11.00
2019-04-23T22:24:13.382Z,9.97
2019-04-23T22:25:27.775Z,11.67
2019-04-23T22:27:38.405Z,11.03
2019-04-23T22:28:52.786Z,11.83
2019-04-23T22:29:45.447Z,13.40
2019-04-23T22:30:55.041Z,10.70
2019-04-23T22:31:51.275Z,7.40
2019-04-23T22:33:09.491Z,11.77
2019-04-23T22:34:22.273Z,8.67
2019-04-23T22:35:10.728Z,10.43
2019-04-23T22:36:22.823Z,8.90
2019-04-23T22:37:25.388Z,9.03
2019-04-23T22:38:37.659Z,7.03
2019-04-23T22:39:39.907Z,6.10
2019-04-23T22:40:49.703Z,10.17
2019-04-23T22:42:10.238Z,8.67
2019-04-23T22:43:14.948Z,9.13
2019-04-23T22:44:05.393Z,12.10
2019-04-23T22:46:18.244Z,14.83
2019-04-23T22:47:07.144Z,11.37
2019-04-23T22:48:29.621Z,13.93
2019-04-23T22:49:51.369Z,10.53
2019-04-23T22:50:47.115Z,8.30
2019-04-23T22:52:53.704Z,11.37
2019-04-23T22:54:02.687Z,18.50
2019-04-23T22:55:07.671Z,20.23
2019-04-23T22:56:10.737Z,24.27
2019-04-23T22:57:04.472Z,29.07
2019-04-23T22:58:09.598Z,29.87
2019-04-23T23:00:46.384Z,34.30
2019-04-23T23:01:50.451Z,30.90
2019-04-23T23:02:54.088Z,27.00
2019-04-23T23:04:04.977Z,22.47
2019-04-23T23:05:15.013Z,24.17
2019-04-23T23:06:17.482Z,19.87
2019-04-23T23:07:19.722Z,19.43
2019-04-23T23:08:31.250Z,22.30
2019-04-23T23:09:36.058Z,21.93
2019-04-23T23:10:37.707Z,19.87
2019-04-23T23:11:44.495Z,15.73
2019-04-23T23:13:00.025Z,14.00
2019-04-23T23:14:10.119Z,12.57
2019-04-23T23:15:03.348Z,11.57
2019-04-23T23:17:03.510Z,11.83
2019-04-23T23:18:19.659Z,10.20
2019-04-23T23:19:28.490Z,9.57
2019-04-23T23:21:32.500Z,8.77
2019-04-23T23:23:40.880Z,20.93
2019-04-23T23:24:56.425Z,25.33
2019-04-23T23:25:55.327Z,23.83
2019-04-23T23:28:11.600Z,13.43
2019-04-23T23:29:08.492Z,10.93
2019-04-23T23:33:36.241Z,7.43
2019-04-23T23:34:50.449Z,6.53
2019-04-23T23:35:44.481Z,8.33
2019-04-23T23:36:54.936Z,8.43
2019-04-23T23:40:14.698Z,8.67
2019-04-23T23:41:19.116Z,11.20
2019-04-23T23:45:35.493Z,7.93
2019-04-23T23:47:43.359Z,7.37
2019-04-23T23:48:52.427Z,10.20
2019-04-23T23:50:01.078Z,10.53
2019-04-23T23:52:25.525Z,9.17
2019-04-23T23:53:11.758Z,8.00
2019-04-23T23:55:19.586Z,8.13
2019-04-23T23:56:20.694Z,10.17
2019-04-23T23:57:30.441Z,9.23
2019-04-23T23:58:43.692Z,8.63
